createdAt,value
2022-11-05T00:01:54.604Z,3.70
2022-11-05T00:04:39.797Z,4.80
2022-11-05T00:07:38.438Z,5.47
2022-11-05T00:10:17.745Z,5.40
2022-11-05T00:13:02.840Z,6.10
2022-11-05T00:15:48.205Z,5.77
2022-11-05T00:18:15.015Z,5.80
2022-11-05T00:20:41.579Z,3.13
2022-11-05T00:23:26.655Z,3.77
2022-11-05T00:26:04.352Z,4.30
2022-11-05T00:28:32.263Z,3.37
2022-11-05T00:31:09.687Z,5.80
2022-11-05T00:33:40.854Z,4.73
2022-11-05T00:36:09.229Z,4.17
2022-11-05T00:38:36.475Z,5.00
2022-11-05T00:41:03.061Z,5.37
2022-11-05T00:43:48.469Z,5.13
2022-11-05T00:46:15.063Z,4.70
2022-11-05T00:49:01.961Z,6.67
2022-11-05T00:51:28.550Z,4.73
2022-11-05T00:53:55.136Z,4.33
2022-11-05T00:56:21.733Z,4.67
2022-11-05T00:58:48.808Z,4.00
2022-11-05T01:01:15.627Z,4.10
2022-11-05T01:03:45.122Z,4.07
2022-11-05T01:06:16.926Z,4.07
2022-11-05T01:08:45.376Z,5.60
2022-11-05T01:11:33.412Z,4.57
2022-11-05T01:14:05.695Z,4.33
2022-11-05T01:16:32.942Z,4.80
2022-11-05T01:19:00.545Z,3.80
2022-11-05T01:21:27.503Z,3.10
2022-11-05T01:23:54.333Z,4.80
2022-11-05T01:26:20.943Z,3.20
2022-11-05T01:29:05.776Z,2.67
2022-11-05T01:31:32.497Z,3.10
2022-11-05T01:34:00.626Z,10.23
2022-11-05T01:36:27.207Z,3.40
2022-11-05T01:38:53.884Z,3.13
2022-11-05T01:41:20.525Z,4.87
2022-11-05T01:43:56.438Z,3.53
2022-11-05T01:46:42.998Z,6.03
2022-11-05T01:49:29.384Z,4.07
2022-11-05T01:51:57.859Z,4.30
2022-11-05T01:54:29.503Z,2.90
2022-11-05T01:57:01.843Z,3.87
2022-11-05T01:59:33.265Z,3.97
2022-11-05T02:02:02.415Z,5.63
2022-11-05T02:04:44.730Z,3.00
2022-11-05T02:07:12.757Z,4.87
2022-11-05T02:09:51.549Z,5.50
2022-11-05T02:12:19.571Z,4.73
2022-11-05T02:14:46.245Z,4.03
2022-11-05T02:17:21.581Z,3.33
2022-11-05T02:20:06.547Z,4.33
2022-11-05T02:22:54.116Z,4.13
2022-11-05T02:25:23.470Z,3.30
2022-11-05T02:28:01.858Z,3.70
2022-11-05T02:30:38.295Z,2.60
2022-11-05T02:33:37.114Z,4.90
2022-11-05T02:36:17.732Z,2.90
2022-11-05T02:39:11.353Z,2.83
2022-11-05T02:42:04.659Z,2.77
2022-11-05T02:44:52.974Z,3.33
2022-11-05T02:47:29.406Z,3.00
2022-11-05T02:50:14.039Z,5.03
2022-11-05T02:52:58.128Z,2.60
2022-11-05T02:55:39.977Z,3.27
2022-11-05T02:58:06.729Z,3.17
2022-11-05T03:00:54.989Z,3.10
2022-11-05T03:03:33.813Z,4.03
2022-11-05T03:06:31.162Z,3.63
2022-11-05T03:09:35.231Z,2.67
2022-11-05T03:12:21.343Z,5.80
2022-11-05T03:14:58.850Z,3.63
2022-11-05T03:18:00.866Z,3.10
2022-11-05T03:21:05.448Z,3.23
2022-11-05T03:23:42.493Z,2.20
2022-11-05T03:26:43.174Z,3.33
2022-11-05T03:29:15.347Z,2.90
2022-11-05T03:31:45.713Z,3.43
2022-11-05T03:34:14.812Z,3.13
2022-11-05T03:36:48.333Z,3.87
2022-11-05T03:39:21.941Z,2.60
2022-11-05T03:41:51.256Z,3.50
2022-11-05T03:44:23.511Z,5.27
2022-11-05T03:46:52.608Z,4.23
2022-11-05T03:49:24.054Z,3.10
2022-11-05T03:52:01.491Z,5.13
2022-11-05T03:54:28.315Z,4.17
2022-11-05T03:57:09.590Z,3.50
2022-11-05T03:59:45.077Z,4.10
2022-11-05T04:02:13.431Z,4.10
2022-11-05T04:04:40.544Z,3.93
2022-11-05T04:07:27.233Z,5.73
2022-11-05T04:10:12.576Z,5.67
2022-11-05T04:12:57.830Z,5.10
2022-11-05T04:15:24.730Z,7.43
2022-11-05T04:17:51.342Z,4.67
2022-11-05T04:20:36.306Z,5.77
2022-11-05T04:23:25.266Z,8.83
2022-11-05T04:25:51.971Z,4.30
2022-11-05T04:28:18.568Z,4.43
2022-11-05T04:30:45.194Z,6.40
2022-11-05T04:33:13.447Z,3.87
2022-11-05T04:35:49.645Z,4.53
2022-11-05T04:38:20.293Z,5.10
2022-11-05T04:40:48.093Z,4.00
2022-11-05T04:43:17.985Z,5.50
2022-11-05T04:45:45.446Z,4.97
2022-11-05T04:48:12.372Z,5.67
2022-11-05T04:50:39.325Z,6.53
2022-11-05T04:53:05.924Z,6.57
2022-11-05T04:55:32.508Z,6.20
2022-11-05T04:57:59.181Z,6.30
2022-11-05T05:00:25.938Z,6.43
2022-11-05T05:02:52.511Z,5.97
2022-11-05T05:05:19.169Z,6.43
2022-11-05T05:07:45.746Z,5.03
2022-11-05T05:10:12.983Z,4.97
2022-11-05T05:12:39.573Z,8.23
2022-11-05T05:15:06.628Z,4.57
2022-11-05T05:17:33.180Z,8.83
2022-11-05T05:20:18.344Z,7.07
2022-11-05T05:22:51.644Z,4.03
2022-11-05T05:25:18.250Z,4.30
2022-11-05T05:27:44.880Z,5.00
2022-11-05T05:30:11.861Z,4.40
2022-11-05T05:32:38.472Z,4.33
2022-11-05T05:35:05.507Z,4.73
2022-11-05T05:37:32.086Z,4.73
2022-11-05T05:39:58.651Z,5.40
2022-11-05T05:42:25.248Z,5.43
2022-11-05T05:44:51.823Z,5.37
2022-11-05T05:47:18.435Z,4.97
2022-11-05T05:49:45.002Z,5.90
2022-11-05T05:52:11.608Z,6.03
2022-11-05T05:54:42.522Z,5.93
2022-11-05T05:57:10.357Z,7.27
2022-11-05T05:59:36.942Z,6.57
2022-11-05T06:02:03.798Z,6.90
2022-11-05T06:04:30.723Z,6.40
2022-11-05T06:06:57.338Z,8.13
2022-11-05T06:09:23.949Z,5.87
2022-11-05T06:11:53.551Z,6.90
2022-11-05T06:14:20.201Z,7.90
2022-11-05T06:16:46.794Z,7.07
2022-11-05T06:19:13.404Z,5.13
2022-11-05T06:21:39.966Z,6.10
2022-11-05T06:24:06.938Z,5.97
2022-11-05T06:26:33.497Z,7.03
2022-11-05T06:29:00.043Z,5.17
2022-11-05T06:31:26.620Z,4.70
2022-11-05T06:33:53.249Z,5.20
2022-11-05T06:36:20.443Z,7.77
2022-11-05T06:38:50.334Z,9.00
2022-11-05T06:41:16.987Z,9.63
2022-11-05T06:43:43.779Z,4.83
2022-11-05T06:46:11.644Z,7.60
2022-11-05T06:48:39.133Z,5.80
2022-11-05T06:51:07.933Z,8.37
2022-11-05T06:53:35.664Z,7.83
2022-11-05T06:56:06.699Z,8.27
2022-11-05T06:58:34.302Z,6.20
2022-11-05T07:01:07.827Z,8.27
2022-11-05T07:03:35.690Z,8.27
2022-11-05T07:06:03.402Z,6.23
2022-11-05T07:08:34.773Z,5.70
2022-11-05T07:11:01.530Z,6.00
2022-11-05T07:13:28.240Z,5.90
2022-11-05T07:15:55.085Z,6.77
2022-11-05T07:18:22.189Z,8.13
2022-11-05T07:20:49.290Z,7.17
2022-11-05T07:23:16.487Z,6.23
2022-11-05T07:25:43.634Z,8.90
2022-11-05T07:28:10.850Z,5.93
2022-11-05T07:30:37.977Z,5.77
2022-11-05T07:33:04.597Z,6.60
2022-11-05T07:35:31.561Z,8.47
2022-11-05T07:37:58.606Z,6.33
2022-11-05T07:40:28.391Z,8.93
2022-11-05T07:42:57.092Z,9.93
2022-11-05T07:45:24.826Z,9.50
2022-11-05T07:47:52.590Z,10.00
2022-11-05T07:50:21.494Z,10.60
2022-11-05T07:52:48.648Z,10.03
2022-11-05T07:55:20.975Z,10.63
2022-11-05T07:57:49.635Z,8.13
2022-11-05T08:00:21.833Z,9.87
2022-11-05T08:03:09.848Z,10.23
2022-11-05T08:05:38.942Z,10.40
2022-11-05T08:08:12.039Z,8.83
2022-11-05T08:10:39.608Z,9.13
2022-11-05T08:13:08.568Z,12.50
2022-11-05T08:15:35.874Z,12.90
2022-11-05T08:18:09.273Z,13.00
2022-11-05T08:20:36.863Z,7.73
2022-11-05T08:23:03.504Z,9.77
2022-11-05T08:25:30.461Z,9.53
2022-11-05T08:27:59.529Z,10.63
2022-11-05T08:30:26.897Z,13.47
2022-11-05T08:32:57.710Z,16.47
2022-11-05T08:35:24.988Z,13.63
2022-11-05T08:37:55.351Z,12.83
2022-11-05T08:40:21.950Z,14.37
2022-11-05T08:42:48.523Z,16.53
2022-11-05T08:45:15.291Z,13.03
2022-11-05T08:47:41.869Z,12.67
2022-11-05T08:50:08.879Z,16.00
2022-11-05T08:52:35.470Z,11.97
2022-11-05T08:55:02.069Z,13.47
2022-11-05T08:57:28.637Z,13.23
2022-11-05T08:59:55.507Z,11.63
2022-11-05T09:02:22.190Z,17.30
2022-11-05T09:04:49.070Z,13.17
2022-11-05T09:07:16.923Z,12.53
2022-11-05T09:09:43.530Z,18.13
2022-11-05T09:12:12.919Z,19.07
2022-11-05T09:14:39.837Z,16.07
2022-11-05T09:17:15.751Z,18.00
2022-11-05T09:19:42.337Z,19.37
2022-11-05T09:22:08.965Z,18.33
2022-11-05T09:24:35.560Z,25.97
2022-11-05T09:27:02.153Z,18.37
2022-11-05T09:29:28.788Z,24.33
2022-11-05T09:31:55.417Z,21.70
2022-11-05T09:34:23.629Z,19.50
2022-11-05T09:36:50.204Z,20.77
2022-11-05T09:39:16.797Z,23.17
2022-11-05T09:41:44.547Z,22.40
2022-11-05T09:44:21.416Z,19.13
2022-11-05T09:46:53.802Z,22.40
2022-11-05T09:49:24.398Z,19.77
2022-11-05T09:51:54.434Z,16.43
2022-11-05T09:54:31.658Z,16.33
2022-11-05T09:57:01.192Z,16.93
2022-11-05T09:59:34.990Z,17.23
2022-11-05T10:02:12.155Z,18.40
2022-11-05T10:04:40.575Z,18.03
2022-11-05T10:07:10.957Z,18.10
2022-11-05T10:09:45.216Z,16.10
2022-11-05T10:12:13.837Z,16.17
2022-11-05T10:14:51.570Z,19.00
2022-11-05T10:17:25.089Z,15.53
2022-11-05T10:20:33.838Z,16.27
2022-11-05T10:23:10.231Z,20.17
2022-11-05T10:25:40.925Z,17.97
2022-11-05T10:28:09.684Z,15.30
2022-11-05T10:30:37.237Z,16.83
2022-11-05T10:33:06.408Z,16.37
2022-11-05T10:35:35.414Z,17.73
2022-11-05T10:38:02.308Z,13.63
2022-11-05T10:40:53.127Z,13.17
2022-11-05T10:43:30.507Z,16.70
2022-11-05T10:46:34.489Z,18.87
2022-11-05T10:49:43.559Z,20.47
2022-11-05T10:52:22.037Z,18.87
2022-11-05T10:54:50.872Z,16.93
2022-11-05T10:57:44.042Z,16.80
2022-11-05T11:00:16.740Z,18.37
2022-11-05T11:02:45.596Z,23.23
2022-11-05T11:05:21.961Z,18.10
2022-11-05T11:08:16.556Z,17.93
2022-11-05T11:10:49.726Z,17.53
2022-11-05T11:13:24.968Z,15.77
2022-11-05T11:15:52.247Z,17.10
2022-11-05T11:18:40.219Z,18.40
2022-11-05T11:21:15.027Z,15.83
2022-11-05T11:23:43.520Z,16.07
2022-11-05T11:26:12.396Z,14.77
2022-11-05T11:28:50.615Z,15.07
2022-11-05T11:31:22.708Z,19.63
2022-11-05T11:33:56.776Z,15.50
2022-11-05T11:36:33.197Z,14.87
2022-11-05T11:39:04.383Z,18.23
2022-11-05T11:41:38.868Z,18.03
2022-11-05T11:44:23.639Z,14.67
2022-11-05T11:46:55.015Z,14.37
2022-11-05T11:49:30.620Z,14.00
2022-11-05T11:52:05.028Z,14.70
2022-11-05T11:54:34.178Z,14.83
2022-11-05T11:57:03.286Z,14.33
2022-11-05T12:00:01.884Z,17.47
2022-11-05T12:03:00.358Z,16.00
2022-11-05T12:06:04.977Z,15.87
2022-11-05T12:08:45.655Z,14.13
2022-11-05T12:11:18.572Z,14.80
2022-11-05T12:13:50.998Z,15.37
2022-11-05T12:16:30.243Z,17.20
2022-11-05T12:19:21.481Z,11.67
2022-11-05T12:21:57.554Z,14.80
2022-11-05T12:25:06.479Z,14.33
2022-11-05T12:28:05.571Z,11.27
2022-11-05T12:31:01.935Z,11.53
2022-11-05T12:33:38.389Z,10.23
2022-11-05T12:36:15.728Z,10.93
2022-11-05T12:39:27.257Z,11.30
2022-11-05T12:42:13.421Z,13.27
2022-11-05T12:44:56.208Z,14.93
2022-11-05T12:47:32.177Z,11.73
2022-11-05T12:50:16.838Z,14.60
2022-11-05T12:53:04.604Z,12.77
2022-11-05T12:55:40.075Z,17.30
2022-11-05T12:58:18.197Z,11.20
2022-11-05T13:00:50.711Z,10.57
2022-11-05T13:03:20.719Z,12.03
2022-11-05T13:06:04.545Z,14.17
2022-11-05T13:09:00.316Z,10.77
2022-11-05T13:11:59.217Z,16.33
2022-11-05T13:14:47.335Z,12.17
2022-11-05T13:17:20.188Z,10.73
2022-11-05T13:20:02.013Z,17.43
2022-11-05T13:22:47.724Z,7.90
2022-11-05T13:25:33.043Z,10.73
2022-11-05T13:28:10.233Z,8.53
2022-11-05T13:30:44.786Z,11.17
2022-11-05T13:33:51.079Z,10.93
2022-11-05T13:36:41.152Z,11.60
2022-11-05T13:39:15.662Z,13.90
2022-11-05T13:41:51.063Z,12.90
2022-11-05T13:44:49.597Z,10.67
2022-11-05T13:47:38.022Z,8.67
2022-11-05T13:50:22.579Z,17.53
2022-11-05T13:53:23.344Z,10.53
2022-11-05T13:55:55.995Z,8.63
2022-11-05T13:58:56.345Z,9.80
2022-11-05T14:01:41.010Z,7.33
2022-11-05T14:04:16.285Z,10.73
2022-11-05T14:06:43.053Z,11.73
2022-11-05T14:09:16.529Z,15.83
2022-11-05T14:11:50.288Z,8.77
2022-11-05T14:14:21.526Z,9.63
2022-11-05T14:17:14.319Z,10.67
2022-11-05T14:20:08.029Z,9.47
2022-11-05T14:22:39.424Z,7.03
2022-11-05T14:25:18.117Z,7.33
2022-11-05T14:27:47.554Z,5.97
2022-11-05T14:30:41.061Z,8.20
2022-11-05T14:33:38.372Z,6.40
2022-11-05T14:36:20.266Z,9.20
2022-11-05T14:38:52.855Z,8.03
2022-11-05T14:41:20.656Z,8.17
2022-11-05T14:43:57.534Z,7.20
2022-11-05T14:46:25.077Z,6.73
2022-11-05T14:48:58.295Z,6.50
2022-11-05T14:51:36.954Z,8.70
2022-11-05T14:54:13.420Z,6.83
2022-11-05T14:56:56.940Z,9.63
2022-11-05T14:59:31.501Z,9.17
2022-11-05T15:02:03.783Z,11.30
2022-11-05T15:04:33.756Z,13.33
2022-11-05T15:07:03.184Z,10.77
2022-11-05T15:09:48.687Z,12.27
2022-11-05T15:12:44.566Z,17.17
2022-11-05T15:15:24.850Z,10.97
2022-11-05T15:18:18.846Z,11.53
2022-11-05T15:20:48.519Z,9.50
2022-11-05T15:23:19.178Z,11.23
2022-11-05T15:25:59.910Z,12.00
2022-11-05T15:28:50.827Z,11.63
2022-11-05T15:31:41.299Z,10.83
2022-11-05T15:34:16.756Z,10.73
2022-11-05T15:36:54.294Z,12.20
2022-11-05T15:39:45.930Z,12.30
2022-11-05T15:42:14.496Z,9.90
2022-11-05T15:44:44.608Z,10.50
2022-11-05T15:47:30.464Z,10.43
2022-11-05T15:50:02.718Z,9.70
2022-11-05T15:52:36.484Z,10.40
2022-11-05T15:55:12.335Z,9.17
2022-11-05T15:57:50.673Z,10.83
2022-11-05T16:00:19.849Z,11.13
2022-11-05T16:03:13.278Z,8.60
2022-11-05T16:05:46.422Z,8.13
2022-11-05T16:08:24.362Z,11.27
2022-11-05T16:10:53.626Z,8.97
2022-11-05T16:13:41.442Z,12.23
2022-11-05T16:16:14.004Z,10.83
2022-11-05T16:18:41.599Z,11.30
2022-11-05T16:21:14.370Z,11.93
2022-11-05T16:23:49.813Z,12.43
2022-11-05T16:27:00.729Z,12.30
2022-11-05T16:29:39.045Z,13.27
2022-11-05T16:32:30.759Z,12.27
2022-11-05T16:35:01.302Z,13.17
2022-11-05T16:37:51.987Z,12.63
2022-11-05T16:40:20.803Z,9.93
2022-11-05T16:42:48.528Z,12.43
2022-11-05T16:45:17.034Z,12.47
2022-11-05T16:47:44.439Z,12.67
2022-11-05T16:50:17.695Z,15.43
2022-11-05T16:52:46.069Z,15.73
2022-11-05T16:55:14.182Z,13.70
2022-11-05T16:57:44.102Z,12.43
2022-11-05T17:00:16.299Z,16.33
2022-11-05T17:02:44.020Z,18.30
2022-11-05T17:05:24.657Z,14.23
2022-11-05T17:07:51.951Z,12.33
2022-11-05T17:10:19.707Z,15.83
2022-11-05T17:12:46.981Z,13.50
2022-11-05T17:15:31.646Z,14.87
2022-11-05T17:17:58.808Z,14.00
2022-11-05T17:20:41.477Z,11.83
2022-11-05T17:23:11.106Z,14.80
2022-11-05T17:25:39.595Z,12.53
2022-11-05T17:28:06.480Z,11.70
2022-11-05T17:30:33.440Z,12.20
2022-11-05T17:33:00.162Z,13.83
2022-11-05T17:35:27.646Z,16.30
2022-11-05T17:37:54.307Z,14.67
2022-11-05T17:40:22.625Z,13.97
2022-11-05T17:42:50.547Z,11.67
2022-11-05T17:45:17.368Z,11.10
2022-11-05T17:47:44.566Z,12.37
2022-11-05T17:50:14.096Z,15.87
2022-11-05T17:52:41.003Z,12.77
2022-11-05T17:55:16.390Z,15.70
2022-11-05T17:57:50.490Z,16.07
2022-11-05T18:00:19.895Z,12.90
2022-11-05T18:02:48.291Z,15.67
2022-11-05T18:05:17.493Z,11.50
2022-11-05T18:07:44.490Z,10.10
2022-11-05T18:10:11.601Z,11.10
2022-11-05T18:12:38.967Z,12.53
2022-11-05T18:15:07.075Z,13.30
2022-11-05T18:17:33.955Z,12.93
2022-11-05T18:20:00.960Z,10.70
2022-11-05T18:22:27.881Z,10.03
2022-11-05T18:24:54.777Z,13.10
2022-11-05T18:27:24.478Z,13.80
2022-11-05T18:29:51.224Z,15.30
2022-11-05T18:32:17.890Z,15.17
2022-11-05T18:34:44.701Z,9.30
2022-11-05T18:37:11.523Z,12.10
2022-11-05T18:39:38.474Z,13.23
2022-11-05T18:42:05.860Z,12.47
2022-11-05T18:44:37.804Z,13.13
2022-11-05T18:47:06.885Z,11.03
2022-11-05T18:49:33.784Z,9.70
2022-11-05T18:52:00.515Z,9.00
2022-11-05T18:54:27.125Z,6.87
2022-11-05T18:56:53.964Z,8.23
2022-11-05T18:59:39.192Z,11.00
2022-11-05T19:02:08.119Z,10.77
2022-11-05T19:04:36.036Z,6.70
2022-11-05T19:07:05.368Z,9.27
2022-11-05T19:09:36.740Z,7.80
2022-11-05T19:12:04.616Z,8.30
2022-11-05T19:14:31.938Z,10.57
2022-11-05T19:17:00.123Z,9.07
2022-11-05T19:19:27.153Z,8.63
2022-11-05T19:21:54.202Z,10.47
2022-11-05T19:24:20.838Z,7.60
2022-11-05T19:26:48.001Z,9.73
2022-11-05T19:29:14.661Z,10.13
2022-11-05T19:31:41.341Z,8.20
2022-11-05T19:34:08.263Z,6.83
2022-11-05T19:36:34.993Z,8.63
2022-11-05T19:39:06.240Z,8.03
2022-11-05T19:41:33.303Z,7.77
2022-11-05T19:44:01.575Z,6.77
2022-11-05T19:46:29.691Z,7.27
2022-11-05T19:48:56.552Z,8.30
2022-11-05T19:51:28.742Z,5.93
2022-11-05T19:53:56.118Z,8.97
2022-11-05T19:56:24.843Z,7.57
2022-11-05T19:58:57.207Z,9.50
2022-11-05T20:01:31.196Z,8.97
2022-11-05T20:04:12.405Z,7.63
2022-11-05T20:06:40.999Z,9.47
2022-11-05T20:17:01.161Z,8.70
2022-11-05T20:19:35.400Z,9.03
2022-11-05T20:22:02.055Z,9.37
2022-11-05T20:24:28.709Z,8.60
2022-11-05T20:26:56.286Z,11.90
2022-11-05T20:29:26.032Z,12.40
2022-11-05T20:31:54.697Z,13.03
2022-11-05T20:34:22.735Z,9.83
2022-11-05T20:36:49.712Z,12.07
2022-11-05T20:39:16.925Z,12.50
2022-11-05T20:41:43.585Z,14.43
2022-11-05T20:44:10.240Z,10.30
2022-11-05T20:46:36.876Z,10.33
2022-11-05T20:49:03.496Z,10.73
2022-11-05T20:51:30.149Z,11.50
2022-11-05T20:53:58.751Z,8.43
2022-11-05T20:56:29.320Z,8.60
2022-11-05T20:58:59.837Z,9.37
2022-11-05T21:01:28.384Z,9.10
2022-11-05T21:03:55.690Z,9.97
2022-11-05T21:06:23.006Z,11.47
2022-11-05T21:08:50.527Z,15.93
2022-11-05T21:11:18.927Z,12.77
2022-11-05T21:13:46.022Z,11.50
2022-11-05T21:16:18.234Z,12.23
2022-11-05T21:18:46.055Z,12.73
2022-11-05T21:21:16.246Z,9.57
2022-11-05T21:23:43.035Z,11.73
2022-11-05T21:26:13.817Z,12.97
2022-11-05T21:28:41.601Z,11.23
2022-11-05T21:31:08.734Z,16.57
2022-11-05T21:33:35.715Z,11.10
2022-11-05T21:36:11.074Z,11.57
2022-11-05T21:38:39.209Z,10.00
2022-11-05T21:41:07.115Z,12.27
2022-11-05T21:43:34.531Z,10.57
2022-11-05T21:46:02.837Z,10.60
2022-11-05T21:48:29.582Z,14.20
2022-11-05T21:51:15.057Z,10.13
2022-11-05T21:54:00.719Z,9.33
2022-11-05T21:56:46.280Z,10.37
2022-11-05T21:59:34.075Z,8.83
2022-11-05T22:02:04.647Z,9.90
2022-11-05T22:04:33.776Z,12.47
2022-11-05T22:07:00.944Z,12.30
2022-11-05T22:09:28.213Z,13.77
2022-11-05T22:11:55.517Z,13.33
2022-11-05T22:14:22.503Z,11.60
2022-11-05T22:16:49.251Z,15.33
2022-11-05T22:19:16.219Z,14.43
2022-11-05T22:21:44.365Z,10.63
2022-11-05T22:24:10.993Z,14.53
2022-11-05T22:26:38.737Z,14.87
2022-11-05T22:29:06.499Z,14.77
2022-11-05T22:31:36.262Z,14.60
2022-11-05T22:34:04.370Z,13.00
2022-11-05T22:36:31.967Z,15.20
2022-11-05T22:38:58.603Z,12.20
2022-11-05T22:41:25.266Z,14.73
2022-11-05T22:43:51.951Z,12.83
2022-11-05T22:46:21.129Z,12.07
2022-11-05T22:48:48.212Z,13.20
2022-11-05T22:51:20.315Z,13.53
2022-11-05T22:53:47.550Z,13.47
2022-11-05T22:56:17.313Z,13.53
2022-11-05T22:58:44.170Z,15.50
2022-11-05T23:01:12.622Z,14.63
2022-11-05T23:03:40.873Z,11.27
2022-11-05T23:06:33.558Z,14.10
2022-11-05T23:09:19.516Z,15.03
2022-11-05T23:11:52.239Z,11.93
2022-11-05T23:14:19.419Z,13.33
2022-11-05T23:17:04.793Z,14.53
2022-11-05T23:19:50.153Z,13.83
2022-11-05T23:22:38.639Z,13.27
2022-11-05T23:25:08.007Z,12.13
2022-11-05T23:27:36.839Z,15.10
2022-11-05T23:30:08.530Z,12.63
2022-11-05T23:32:35.942Z,12.10
2022-11-05T23:35:03.545Z,12.67
2022-11-05T23:37:49.655Z,15.57
2022-11-05T23:40:20.156Z,13.10
2022-11-05T23:43:05.718Z,15.13
2022-11-05T23:45:51.573Z,13.30
2022-11-05T23:48:25.299Z,11.73
2022-11-05T23:51:12.307Z,13.10
2022-11-05T23:53:40.812Z,14.73
2022-11-05T23:56:12.855Z,15.73
2022-11-05T23:58:40.615Z,11.43
